Time;durP1;ratioP1;P1;durP2;ratioP2;P2;SDS_P1;SDS_P2;PMS_P1;PMS_P2;Temp;Humidity;BMP_temperature;BMP_pressure;BME280_temperature;BME280_humidity;BME280_pressure;Samples;Min_cycle;Max_cycle;Signal;HPM_P1;HPM_P2
2022/06/27 00:02:14;;;;;;;6.63;3.42;;;19.40;81.20;;;;;;5037538;28;20136;-75
2022/06/27 00:04:40;;;;;;;7.55;3.35;;;19.50;81.20;;;;;;5069265;28;20055;-75
2022/06/27 00:07:09;;;;;;;7.63;3.05;;;19.40;81.50;;;;;;5053510;28;20089;-74
2022/06/27 00:09:35;;;;;;;9.25;3.60;;;19.40;81.60;;;;;;5068209;28;20133;-74
2022/06/27 00:12:01;;;;;;;5.95;2.70;;;19.50;81.40;;;;;;5059792;28;20047;-74
2022/06/27 00:14:28;;;;;;;4.78;2.65;;;19.40;81.20;;;;;;5056337;28;20514;-74
2022/06/27 00:16:53;;;;;;;9.65;3.92;;;19.40;81.10;;;;;;5051550;28;20025;-74
2022/06/27 00:19:19;;;;;;;10.25;3.30;;;19.40;81.10;;;;;;5047927;28;20026;-74
2022/06/27 00:21:45;;;;;;;6.95;2.85;;;19.50;81.50;;;;;;5038385;28;20403;-74
2022/06/27 00:24:10;;;;;;;9.30;4.18;;;19.50;81.60;;;;;;5051546;28;20083;-74
2022/06/27 00:26:36;;;;;;;5.38;2.88;;;19.50;82.10;;;;;;5052757;28;20032;-74
2022/06/27 00:29:02;;;;;;;4.80;2.50;;;19.50;81.00;;;;;;5061178;28;20033;-74
2022/06/27 00:31:28;;;;;;;6.65;2.75;;;19.50;81.20;;;;;;5051122;28;20021;-75
2022/06/27 00:33:54;;;;;;;6.03;3.00;;;19.40;81.80;;;;;;5065128;28;20036;-74
2022/06/27 00:36:19;;;;;;;6.50;3.25;;;19.40;81.10;;;;;;5058250;28;20021;-76
2022/06/27 00:38:45;;;;;;;6.72;3.13;;;19.40;81.50;;;;;;5051932;28;20029;-75
2022/06/27 00:41:11;;;;;;;5.60;3.15;;;19.50;81.60;;;;;;5065498;28;20138;-75
2022/06/27 00:43:36;;;;;;;6.38;3.03;;;19.40;81.60;;;;;;5055988;28;20033;-76
2022/06/27 00:46:02;;;;;;;6.75;2.95;;;19.40;81.40;;;;;;5064274;28;20057;-76
2022/06/27 00:48:28;;;;;;;5.43;2.45;;;19.40;81.20;;;;;;5050155;28;20517;-74
2022/06/27 00:50:54;;;;;;;9.43;2.85;;;19.40;81.70;;;;;;5056453;28;20025;-76
2022/06/27 00:53:20;;;;;;;8.15;3.50;;;19.40;81.40;;;;;;5056609;28;20035;-76
2022/06/27 00:55:46;;;;;;;4.75;2.90;;;19.40;81.80;;;;;;5051622;28;20747;-76
2022/06/27 00:58:11;;;;;;;5.35;2.63;;;19.40;81.10;;;;;;5041334;28;20471;-74
2022/06/27 01:00:37;;;;;;;4.88;2.92;;;19.40;81.30;;;;;;5055194;28;20021;-75
2022/06/27 01:03:03;;;;;;;6.88;3.03;;;19.50;81.80;;;;;;5042392;28;20062;-75
2022/06/27 01:05:28;;;;;;;6.00;2.80;;;19.50;81.30;;;;;;5062034;28;20514;-76
2022/06/27 01:07:54;;;;;;;6.88;2.83;;;19.50;80.80;;;;;;5037676;28;20399;-75
2022/06/27 01:10:20;;;;;;;5.28;2.50;;;19.40;80.80;;;;;;5061625;28;20143;-75
2022/06/27 01:12:48;;;;;;;6.60;2.75;;;19.40;80.90;;;;;;5049396;28;20798;-75
2022/06/27 01:15:13;;;;;;;5.97;2.90;;;19.40;80.90;;;;;;5062893;28;20017;-76
2022/06/27 01:17:39;;;;;;;6.50;2.65;;;19.50;80.90;;;;;;5039500;28;20083;-75
2022/06/27 01:20:08;;;;;;;8.02;2.95;;;19.40;80.50;;;;;;5059926;28;20029;-76
2022/06/27 01:22:34;;;;;;;6.28;3.13;;;19.40;80.50;;;;;;5048337;28;20025;-76
2022/06/27 01:25:00;;;;;;;6.53;3.50;;;19.50;80.40;;;;;;5059793;28;20039;-75
2022/06/27 01:27:26;;;;;;;8.25;3.00;;;19.40;80.20;;;;;;5046738;28;20025;-75
2022/06/27 01:29:52;;;;;;;7.20;2.78;;;19.50;80.40;;;;;;5042130;28;20487;-76
2022/06/27 01:32:17;;;;;;;8.40;3.17;;;19.50;80.00;;;;;;5059437;28;20026;-76
2022/06/27 01:34:43;;;;;;;5.53;2.78;;;19.50;79.70;;;;;;5045809;28;20097;-74
2022/06/27 01:37:09;;;;;;;7.40;2.58;;;19.50;80.30;;;;;;5065291;28;20035;-75
2022/06/27 01:39:35;;;;;;;5.72;2.78;;;19.50;80.60;;;;;;5050692;28;20041;-75
2022/06/27 01:42:03;;;;;;;5.80;2.95;;;19.50;80.30;;;;;;5057046;28;20114;-74
2022/06/27 01:44:31;;;;;;;5.82;3.28;;;19.40;80.60;;;;;;5048497;28;20658;-75
2022/06/27 01:47:08;;;;;;;7.88;3.45;;;19.50;80.40;;;;;;5040791;28;20053;-76
2022/06/27 01:49:36;;;;;;;7.15;2.65;;;19.50;79.90;;;;;;5045807;28;20054;-76
2022/06/27 01:52:03;;;;;;;6.75;2.95;;;19.50;79.50;;;;;;5058026;28;20025;-75
2022/06/27 01:54:29;;;;;;;4.90;2.63;;;19.50;79.30;;;;;;5042402;28;20034;-76
2022/06/27 01:56:55;;;;;;;6.15;3.25;;;19.50;79.50;;;;;;5058814;28;20025;-74
2022/06/27 01:59:23;;;;;;;7.40;3.20;;;19.50;79.10;;;;;;5030605;28;20028;-74
2022/06/27 02:01:50;;;;;;;6.97;3.45;;;19.50;78.80;;;;;;5053911;28;20505;-75
2022/06/27 02:04:17;;;;;;;6.03;2.80;;;19.50;79.50;;;;;;5045035;28;20472;-75
2022/06/27 02:06:44;;;;;;;5.47;2.65;;;19.50;79.10;;;;;;5052136;28;20092;-75
2022/06/27 02:09:14;;;;;;;7.65;3.40;;;19.50;79.30;;;;;;5061387;28;20410;-74
2022/06/27 02:11:42;;;;;;;7.25;3.25;;;19.50;79.40;;;;;;5060905;28;20107;-75
2022/06/27 02:14:08;;;;;;;6.68;2.88;;;19.50;79.50;;;;;;5046454;28;20029;-74
2022/06/27 02:16:33;;;;;;;8.65;3.35;;;19.40;79.50;;;;;;5053038;28;20096;-75
2022/06/27 02:18:59;;;;;;;7.00;3.45;;;19.40;79.50;;;;;;5050156;28;20158;-75
2022/06/27 02:21:27;;;;;;;5.55;2.83;;;19.40;80.00;;;;;;5047528;28;20078;-75
2022/06/27 02:23:53;;;;;;;5.82;2.60;;;19.50;79.90;;;;;;5053617;28;20502;-75
2022/06/27 02:26:26;;;;;;;9.55;3.35;;;19.50;80.10;;;;;;5039483;28;20040;-75
2022/06/27 02:28:53;;;;;;;6.95;3.35;;;19.40;80.20;;;;;;5045394;28;20492;-75
2022/06/27 02:31:19;;;;;;;9.77;3.45;;;19.50;80.00;;;;;;5052338;28;20024;-75
2022/06/27 02:33:46;;;;;;;8.15;3.25;;;19.50;80.10;;;;;;5062614;28;20025;-75
2022/06/27 02:36:17;;;;;;;6.18;3.00;;;19.50;80.10;;;;;;5067271;28;20137;-75
2022/06/27 02:38:44;;;;;;;5.95;3.25;;;19.50;80.40;;;;;;5048266;28;20039;-75
2022/06/27 02:41:13;;;;;;;7.32;3.22;;;19.50;80.30;;;;;;5041948;28;20097;-75
2022/06/27 02:43:40;;;;;;;7.43;3.10;;;19.50;80.30;;;;;;5062889;28;20035;-75
2022/06/27 02:46:06;;;;;;;7.75;3.10;;;19.50;80.40;;;;;;5038317;28;20763;-74
2022/06/27 02:48:32;;;;;;;5.72;3.00;;;19.50;80.50;;;;;;5064171;28;20021;-75
2022/06/27 02:51:05;;;;;;;9.40;3.50;;;19.50;80.40;;;;;;5051832;28;20033;-75
2022/06/27 02:53:38;;;;;;;6.22;3.35;;;19.40;80.50;;;;;;5059977;28;20032;-76
2022/06/27 02:56:09;;;;;;;7.50;3.53;;;19.40;80.50;;;;;;5039293;28;20471;-76
2022/06/27 02:58:53;;;;;;;7.47;3.30;;;19.50;80.30;;;;;;5065213;28;20395;-75
2022/06/27 03:01:20;;;;;;;8.45;3.70;;;19.40;80.30;;;;;;5033342;28;20033;-75
2022/06/27 03:03:48;;;;;;;8.10;3.95;;;19.40;80.40;;;;;;5055138;28;20036;-74
2022/06/27 03:06:14;;;;;;;6.05;3.38;;;19.40;80.20;;;;;;5073282;28;20025;-75
2022/06/27 03:08:43;;;;;;;8.05;4.07;;;19.40;80.40;;;;;;5051274;28;20484;-76
2022/06/27 03:11:15;;;;;;;9.90;4.63;;;19.40;80.60;;;;;;5071246;28;20032;-75
2022/06/27 03:13:41;;;;;;;10.70;5.15;;;19.40;81.00;;;;;;5064392;28;20376;-76
2022/06/27 03:16:10;;;;;;;8.40;5.15;;;19.40;81.20;;;;;;5050269;28;20825;-75
2022/06/27 03:18:36;;;;;;;9.13;4.70;;;19.40;81.30;;;;;;5054379;28;20012;-76
2022/06/27 03:21:02;;;;;;;11.35;4.50;;;19.40;81.50;;;;;;5053082;28;20052;-75
2022/06/27 03:23:27;;;;;;;8.27;4.50;;;19.40;81.80;;;;;;5054763;28;20060;-76
2022/06/27 03:25:54;;;;;;;8.25;4.38;;;19.40;82.10;;;;;;5058279;28;20021;-76
2022/06/27 03:28:21;;;;;;;8.10;5.28;;;19.40;82.60;;;;;;5055359;28;20032;-76
2022/06/27 03:30:46;;;;;;;8.38;4.95;;;19.40;82.60;;;;;;5059913;28;20562;-76
2022/06/27 03:33:13;;;;;;;9.57;5.72;;;19.40;82.70;;;;;;5047940;28;20034;-76
2022/06/27 03:35:39;;;;;;;10.65;6.05;;;19.40;82.70;;;;;;5062531;28;20083;-76
2022/06/27 03:38:04;;;;;;;8.02;5.05;;;19.40;83.00;;;;;;5049997;28;20486;-76
2022/06/27 03:40:30;;;;;;;8.88;4.78;;;19.40;83.10;;;;;;5069543;28;20098;-76
2022/06/27 03:42:56;;;;;;;6.30;4.53;;;19.40;83.10;;;;;;5060700;28;21917;-76
2022/06/27 03:45:22;;;;;;;9.40;5.30;;;19.40;83.50;;;;;;5062638;28;20017;-75
2022/06/27 03:47:58;;;;;;;13.45;6.05;;;19.40;83.70;;;;;;5062117;28;20235;-75
2022/06/27 03:50:25;;;;;;;10.68;6.82;;;19.40;83.50;;;;;;5059191;28;20025;-74
2022/06/27 03:52:52;;;;;;;10.10;6.22;;;19.40;83.50;;;;;;5053767;28;20101;-74
2022/06/27 03:55:17;;;;;;;10.45;6.45;;;19.30;83.60;;;;;;5064031;28;20069;-74
2022/06/27 03:57:55;;;;;;;8.15;5.72;;;19.30;83.90;;;;;;5046996;28;20025;-75
2022/06/27 04:00:24;;;;;;;11.93;5.95;;;19.30;84.10;;;;;;5064008;28;20029;-75
2022/06/27 04:02:51;;;;;;;10.10;7.07;;;19.30;84.30;;;;;;5030880;28;20021;-75
2022/06/27 04:05:16;;;;;;;12.57;7.13;;;19.30;84.30;;;;;;5056827;28;20483;-76
2022/06/27 04:07:42;;;;;;;10.63;7.18;;;19.20;84.40;;;;;;5052861;28;20040;-76
2022/06/27 04:10:09;;;;;;;11.98;7.32;;;19.30;84.70;;;;;;5051714;28;20024;-75
2022/06/27 04:12:36;;;;;;;13.80;7.47;;;19.20;85.00;;;;;;5056781;28;20025;-76
2022/06/27 04:15:03;;;;;;;11.13;6.78;;;19.20;85.30;;;;;;5055068;28;20032;-76
2022/06/27 04:17:29;;;;;;;10.55;6.28;;;19.20;85.50;;;;;;5046520;28;20029;-76
2022/06/27 04:19:55;;;;;;;9.40;6.05;;;19.20;85.80;;;;;;5053952;28;20033;-75
2022/06/27 04:22:20;;;;;;;12.00;6.60;;;19.20;86.00;;;;;;5053494;28;20453;-74
2022/06/27 04:24:46;;;;;;;9.20;5.75;;;19.20;86.00;;;;;;5052473;28;20037;-75
2022/06/27 04:27:13;;;;;;;11.18;6.45;;;19.20;86.20;;;;;;5058219;28;20490;-74
2022/06/27 04:29:48;;;;;;;12.27;7.72;;;19.20;86.40;;;;;;5071878;28;20152;-75
2022/06/27 04:32:17;;;;;;;10.85;7.05;;;19.20;86.60;;;;;;5062028;28;20021;-74
2022/06/27 04:34:43;;;;;;;11.35;6.45;;;19.20;86.70;;;;;;5075893;28;20023;-74
2022/06/27 04:37:10;;;;;;;12.00;6.72;;;19.20;86.70;;;;;;5058917;28;20135;-73
2022/06/27 04:39:36;;;;;;;13.10;6.72;;;19.20;86.80;;;;;;5051977;28;20045;-73
2022/06/27 04:42:02;;;;;;;9.30;6.22;;;19.30;86.90;;;;;;5054020;28;20025;-74
2022/06/27 04:44:28;;;;;;;10.57;6.70;;;19.40;87.10;;;;;;5071042;28;20136;-76
2022/06/27 04:46:54;;;;;;;11.70;6.82;;;19.40;86.90;;;;;;5055618;28;20116;-76
2022/06/27 04:49:20;;;;;;;8.80;6.80;;;19.40;87.10;;;;;;5069598;28;20053;-76
2022/06/27 04:51:49;;;;;;;12.02;6.53;;;19.50;87.00;;;;;;5054939;28;20075;-76
2022/06/27 04:54:16;;;;;;;9.02;6.10;;;19.60;88.00;;;;;;5065861;28;20078;-76
2022/06/27 04:56:43;;;;;;;10.55;7.13;;;19.60;87.10;;;;;;5059433;28;20021;-75
2022/06/27 04:59:09;;;;;;;12.82;7.10;;;19.70;87.00;;;;;;5050852;28;20032;-75
2022/06/27 05:01:35;;;;;;;9.60;6.57;;;19.80;86.90;;;;;;5055481;28;20013;-75
2022/06/27 05:04:01;;;;;;;9.60;5.55;;;19.80;86.90;;;;;;5066087;28;20559;-75
2022/06/27 05:06:26;;;;;;;10.57;6.07;;;19.80;87.00;;;;;;5067767;28;20027;-76
2022/06/27 05:08:52;;;;;;;10.57;6.07;;;19.80;86.90;;;;;;5058710;28;20025;-75
2022/06/27 05:11:17;;;;;;;11.68;8.93;;;19.90;86.90;;;;;;5038370;28;20100;-76
2022/06/27 05:13:43;;;;;;;13.48;10.65;;;19.90;87.00;;;;;;5057681;28;20028;-75
2022/06/27 05:16:09;;;;;;;13.45;9.13;;;19.90;86.40;;;;;;5066330;28;20091;-75
2022/06/27 05:18:35;;;;;;;11.63;10.25;;;19.90;85.90;;;;;;5061244;28;20025;-75
2022/06/27 05:21:01;;;;;;;15.32;10.95;;;19.90;86.00;;;;;;5048319;28;20025;-75
2022/06/27 05:23:27;;;;;;;15.10;10.45;;;20.00;85.90;;;;;;5037245;28;20029;-74
2022/06/27 05:25:53;;;;;;;16.38;11.27;;;20.00;86.10;;;;;;5049087;28;20078;-76
2022/06/27 05:28:18;;;;;;;14.85;10.13;;;20.10;86.00;;;;;;5053587;28;20026;-75
2022/06/27 05:30:44;;;;;;;14.25;10.77;;;20.10;85.80;;;;;;5069585;28;20025;-75
2022/06/27 05:33:09;;;;;;;16.48;11.52;;;20.10;85.50;;;;;;5059077;28;20028;-73
2022/06/27 05:35:36;;;;;;;14.48;9.60;;;20.10;85.60;;;;;;5048196;28;20543;-76
2022/06/27 05:38:02;;;;;;;12.75;9.90;;;20.10;85.10;;;;;;5049145;28;20151;-75
2022/06/27 05:40:27;;;;;;;17.10;10.90;;;20.10;85.30;;;;;;5054169;28;20124;-74
2022/06/27 05:42:53;;;;;;;13.65;9.95;;;20.10;86.10;;;;;;5034887;28;20076;-74
2022/06/27 05:45:19;;;;;;;12.18;10.10;;;20.10;85.40;;;;;;5048179;28;20590;-75
2022/06/27 05:47:46;;;;;;;4.53;2.15;;;20.10;85.50;;;;;;5042253;28;20021;-74
2022/06/27 05:50:12;;;;;;;12.27;8.35;;;20.10;80.00;;;;;;5056367;28;20498;-75
2022/06/27 05:52:39;;;;;;;14.07;9.15;;;20.10;81.80;;;;;;5041820;28;20037;-75
2022/06/27 05:55:08;;;;;;;11.75;8.25;;;20.10;83.70;;;;;;5060585;28;20013;-75
2022/06/27 05:57:34;;;;;;;11.88;8.27;;;20.10;84.40;;;;;;5047413;28;20037;-74
2022/06/27 06:00:00;;;;;;;13.57;9.73;;;20.20;84.60;;;;;;5049186;28;20127;-75
2022/06/27 06:02:26;;;;;;;11.27;9.40;;;20.10;84.80;;;;;;5063864;28;20029;-75
2022/06/27 06:04:53;;;;;;;12.40;9.30;;;20.10;85.10;;;;;;5056314;28;20051;-75
2022/06/27 06:07:22;;;;;;;11.45;9.15;;;20.20;84.80;;;;;;5047373;28;20375;-75
2022/06/27 06:09:49;;;;;;;12.85;8.40;;;20.20;84.00;;;;;;5057862;28;20035;-74
2022/06/27 06:12:16;;;;;;;14.55;9.25;;;20.20;84.00;;;;;;5048852;28;20025;-75
2022/06/27 06:14:43;;;;;;;13.65;9.60;;;20.30;84.20;;;;;;5054717;28;20031;-75
2022/06/27 06:17:09;;;;;;;11.10;8.77;;;20.30;84.00;;;;;;5068884;28;20032;-74
2022/06/27 06:19:35;;;;;;;15.75;9.27;;;20.30;83.20;;;;;;5046185;28;20017;-74
2022/06/27 06:22:01;;;;;;;15.43;9.77;;;20.40;83.50;;;;;;5052705;28;20029;-75
2022/06/27 06:24:27;;;;;;;13.48;9.32;;;20.50;83.20;;;;;;5043321;28;20553;-76
2022/06/27 06:26:55;;;;;;;12.15;9.32;;;20.50;83.20;;;;;;5059023;28;20046;-75
2022/06/27 06:29:23;;;;;;;11.90;9.48;;;20.60;82.90;;;;;;5050071;28;20017;-76
2022/06/27 06:31:49;;;;;;;13.02;9.55;;;20.60;82.50;;;;;;5057199;28;20029;-75
2022/06/27 06:34:16;;;;;;;13.00;8.65;;;20.60;82.40;;;;;;5049630;28;20027;-75
2022/06/27 06:36:43;;;;;;;12.05;8.05;;;20.60;82.90;;;;;;5055681;28;20083;-74
2022/06/27 06:39:09;;;;;;;12.40;8.48;;;20.50;84.00;;;;;;5039194;28;20029;-74
2022/06/27 06:41:36;;;;;;;14.10;8.13;;;20.50;84.50;;;;;;5047269;28;20044;-74
2022/06/27 06:44:05;;;;;;;11.32;7.82;;;20.40;85.10;;;;;;5037300;28;20383;-75
2022/06/27 06:46:34;;;;;;;11.05;8.73;;;20.40;85.20;;;;;;5046249;28;20017;-74
2022/06/27 06:49:09;;;;;;;12.40;9.07;;;20.30;85.60;;;;;;5040000;28;20095;-74
2022/06/27 06:51:36;;;;;;;10.90;8.30;;;20.30;85.80;;;;;;5047206;28;20025;-74
2022/06/27 06:54:12;;;;;;;11.55;8.32;;;20.30;85.90;;;;;;5040674;28;20025;-75
2022/06/27 06:56:38;;;;;;;8.30;5.60;;;20.30;86.00;;;;;;5039755;28;20111;-75
2022/06/27 06:59:05;;;;;;;12.63;8.60;;;20.40;85.80;;;;;;5044149;28;20174;-78
2022/06/27 07:01:33;;;;;;;9.45;6.22;;;20.40;85.20;;;;;;5047409;28;20051;-78
2022/06/27 07:03:59;;;;;;;9.57;4.85;;;20.40;84.50;;;;;;5073649;28;20037;-76
2022/06/27 07:06:26;;;;;;;10.38;6.32;;;20.50;83.90;;;;;;5049050;28;20048;-76
2022/06/27 07:08:53;;;;;;;10.05;6.93;;;20.50;83.60;;;;;;5038375;28;20033;-75
2022/06/27 07:11:21;;;;;;;3.08;1.65;;;20.50;83.60;;;;;;5043820;28;20040;-76
2022/06/27 07:13:48;;;;;;;4.05;1.77;;;20.50;78.00;;;;;;5033547;28;20585;-76
2022/06/27 07:16:14;;;;;;;3.80;1.25;;;20.50;75.90;;;;;;5054766;28;20020;-77
2022/06/27 07:18:40;;;;;;;3.53;1.10;;;20.60;75.20;;;;;;5059797;28;20020;-78
2022/06/27 07:21:06;;;;;;;2.22;1.10;;;20.60;74.50;;;;;;5052142;28;20024;-76
2022/06/27 07:23:33;;;;;;;2.30;1.10;;;20.60;73.80;;;;;;5057347;28;20067;-77
2022/06/27 07:25:59;;;;;;;5.45;2.70;;;20.70;73.40;;;;;;5052318;28;20070;-78
2022/06/27 07:28:28;;;;;;;9.98;6.00;;;20.80;74.00;;;;;;5063470;28;20017;-78
2022/06/27 07:30:55;;;;;;;7.97;4.97;;;20.80;77.00;;;;;;5044589;28;20028;-81
2022/06/27 07:33:21;;;;;;;12.77;8.75;;;20.80;77.60;;;;;;5045816;28;20396;-76
2022/06/27 07:35:47;;;;;;;7.72;6.07;;;20.70;81.30;;;;;;5046055;28;20025;-76
2022/06/27 07:38:13;;;;;;;10.60;7.30;;;20.70;82.10;;;;;;5042790;28;20037;-77
2022/06/27 07:40:39;;;;;;;10.32;6.90;;;20.70;82.60;;;;;;5038984;28;20049;-78
2022/06/27 07:43:05;;;;;;;11.82;8.25;;;20.70;82.30;;;;;;5038547;28;20025;-78
2022/06/27 07:45:32;;;;;;;11.23;8.25;;;20.70;82.30;;;;;;5039586;28;20084;-77
2022/06/27 07:47:57;;;;;;;14.02;11.05;;;20.70;81.90;;;;;;5040468;28;20120;-77
2022/06/27 07:50:41;;;;;;;13.18;10.18;;;20.60;81.90;;;;;;5037678;28;20157;-78
2022/06/27 07:53:13;;;;;;;12.95;10.20;;;20.60;82.20;;;;;;5044047;28;20419;-78
2022/06/27 07:55:53;;;;;;;15.02;8.50;;;20.60;81.90;;;;;;5036899;28;20048;-77
2022/06/27 07:58:30;;;;;;;13.45;9.10;;;20.70;81.80;;;;;;5042263;28;20021;-80
2022/06/27 08:00:57;;;;;;;16.15;9.20;;;20.70;81.90;;;;;;5041694;28;20033;-76
2022/06/27 08:03:42;;;;;;;9.20;5.43;;;20.80;82.10;;;;;;5041309;28;20053;-79
2022/06/27 08:06:13;;;;;;;11.45;9.23;;;20.90;80.80;;;;;;5040210;28;20033;-77
2022/06/27 08:08:41;;;;;;;;;;;21.00;81.20;;;;;;5037652;28;20059;-77
2022/06/27 08:11:10;;;;;;;10.55;8.60;;;21.10;81.10;;;;;;5039144;28;20042;-79
2022/06/27 08:13:36;;;;;;;14.05;9.05;;;21.10;80.80;;;;;;5042622;28;20040;-80
2022/06/27 08:16:02;;;;;;;14.52;8.88;;;21.20;80.40;;;;;;5041922;28;20023;-79
2022/06/27 08:18:31;;;;;;;12.90;9.00;;;21.30;79.60;;;;;;5038866;28;20036;-78
2022/06/27 08:21:00;;;;;;;10.07;7.25;;;21.40;79.30;;;;;;5045863;28;20020;-78
2022/06/27 08:23:26;;;;;;;12.00;7.88;;;21.40;78.60;;;;;;5044297;28;20032;-78
2022/06/27 08:25:52;;;;;;;11.23;7.78;;;21.50;77.00;;;;;;5037921;28;20036;-79
2022/06/27 08:28:19;;;;;;;11.40;7.35;;;21.60;77.30;;;;;;5039478;28;20029;-79
2022/06/27 08:30:47;;;;;;;11.38;8.50;;;21.60;76.60;;;;;;5036560;28;20027;-78
2022/06/27 08:33:13;;;;;;;9.73;7.10;;;21.50;76.60;;;;;;5037221;28;20041;-79
2022/06/27 08:35:40;;;;;;;10.38;5.85;;;21.60;77.20;;;;;;5039616;28;20373;-80
2022/06/27 08:38:06;;;;;;;9.00;6.40;;;21.60;75.30;;;;;;5037160;28;20059;-79
2022/06/27 08:40:32;;;;;;;10.43;6.15;;;21.70;75.90;;;;;;5037379;28;20525;-78
2022/06/27 08:42:58;;;;;;;10.27;6.82;;;21.70;74.60;;;;;;5039740;28;20518;-79
2022/06/27 08:45:28;;;;;;;12.45;7.60;;;21.80;73.90;;;;;;5037125;28;20025;-78
2022/06/27 08:47:58;;;;;;;4.03;2.38;;;21.80;73.30;;;;;;5035343;28;20524;-80
2022/06/27 08:50:24;;;;;;;9.95;6.00;;;22.00;73.00;;;;;;5044377;28;20025;-79
2022/06/27 08:52:51;;;;;;;8.45;4.35;;;22.00;70.80;;;;;;5038575;28;20032;-79
2022/06/27 08:55:17;;;;;;;5.85;3.17;;;22.10;70.20;;;;;;5041781;28;20043;-79
2022/06/27 08:57:42;;;;;;;4.80;2.22;;;22.10;69.50;;;;;;5037483;28;20025;-79
2022/06/27 09:00:11;;;;;;;5.30;2.65;;;22.30;69.50;;;;;;5038718;28;20033;-79
2022/06/27 09:02:44;;;;;;;11.55;5.10;;;22.30;69.10;;;;;;5039033;28;20025;-78
2022/06/27 09:05:18;;;;;;;8.77;4.55;;;22.40;69.00;;;;;;5038150;28;20040;-78
2022/06/27 09:07:52;;;;;;;8.63;5.10;;;22.50;68.70;;;;;;5036004;28;20039;-77
2022/06/27 09:10:39;;;;;;;7.50;4.50;;;22.60;68.90;;;;;;5038458;28;20135;-78
2022/06/27 09:13:19;;;;;;;7.28;1.98;;;22.60;68.80;;;;;;5033223;28;20104;-78
2022/06/27 09:15:55;;;;;;;3.73;2.00;;;22.50;68.30;;;;;;5031840;28;20061;-78
2022/06/27 09:18:25;;;;;;;5.45;2.40;;;22.60;68.60;;;;;;5036997;28;20025;-77
2022/06/27 09:21:15;;;;;;;4.20;1.85;;;22.60;68.70;;;;;;5036721;28;20033;-76
2022/06/27 09:23:47;;;;;;;5.60;2.25;;;22.60;68.80;;;;;;5036925;28;20034;-77
2022/06/27 09:26:31;;;;;;;2.63;1.38;;;22.60;68.90;;;;;;5048323;28;20090;-81
2022/06/27 09:29:09;;;;;;;3.67;1.50;;;22.70;68.70;;;;;;5033420;28;20084;-80
2022/06/27 09:31:44;;;;;;;5.35;2.90;;;22.80;68.00;;;;;;5044285;28;20026;-79
2022/06/27 09:34:18;;;;;;;5.50;3.13;;;22.90;67.80;;;;;;5036066;28;20033;-76
2022/06/27 09:36:54;;;;;;;7.63;4.35;;;22.90;67.70;;;;;;5037946;28;20024;-78
2022/06/27 09:39:39;;;;;;;8.40;4.55;;;22.90;67.50;;;;;;5034526;28;20028;-78
2022/06/27 09:42:13;;;;;;;4.75;2.08;;;22.90;67.10;;;;;;5036681;28;20087;-78
2022/06/27 09:44:44;;;;;;;7.90;2.50;;;22.90;67.50;;;;;;5034453;28;20029;-77
2022/06/27 09:47:18;;;;;;;4.43;1.73;;;23.00;67.20;;;;;;5033811;28;20136;-75
2022/06/27 09:49:50;;;;;;;5.18;2.33;;;23.00;67.50;;;;;;5039024;28;20461;-74
2022/06/27 09:52:22;;;;;;;4.72;2.10;;;23.00;67.50;;;;;;5033630;28;20023;-73
2022/06/27 09:54:49;;;;;;;8.38;2.75;;;23.00;67.30;;;;;;5035267;28;20035;-75
2022/06/27 09:57:16;;;;;;;6.38;2.45;;;23.00;67.00;;;;;;5034200;28;20535;-74
2022/06/27 09:59:44;;;;;;;6.68;2.85;;;22.90;67.40;;;;;;5036599;28;20036;-73
2022/06/27 10:02:13;;;;;;;6.18;2.72;;;22.80;67.50;;;;;;5039898;28;20546;-76
2022/06/27 10:04:42;;;;;;;6.10;2.35;;;22.80;68.00;;;;;;5035050;28;20045;-75
2022/06/27 10:07:09;;;;;;;4.95;2.00;;;22.70;67.20;;;;;;5037009;28;20411;-76
2022/06/27 10:09:36;;;;;;;3.08;1.92;;;22.60;67.80;;;;;;5019957;28;20017;-75
2022/06/27 10:12:27;;;;;;;4.30;2.15;;;22.60;68.30;;;;;;5032322;28;20033;-74
2022/06/27 10:15:12;;;;;;;6.90;2.30;;;22.70;68.50;;;;;;5037652;28;20026;-74
2022/06/27 10:17:43;;;;;;;4.88;2.47;;;22.80;68.00;;;;;;5040086;28;20111;-78
2022/06/27 10:20:33;;;;;;;5.60;2.50;;;23.00;67.50;;;;;;5035151;28;20097;-77
2022/06/27 10:23:13;;;;;;;4.50;2.45;;;23.10;67.20;;;;;;5007624;28;20041;-77
2022/06/27 10:25:44;;;;;;;8.52;4.65;;;23.10;66.60;;;;;;5037097;28;20124;-77
2022/06/27 10:28:14;;;;;;;9.70;4.50;;;23.00;63.70;;;;;;5039575;28;20021;-77
2022/06/27 10:30:42;;;;;;;7.57;4.20;;;23.10;62.00;;;;;;5035419;28;20140;-75
2022/06/27 10:33:25;;;;;;;9.25;4.15;;;23.10;61.80;;;;;;5022644;28;20075;-77
2022/06/27 10:35:54;;;;;;;8.20;4.32;;;23.10;63.00;;;;;;5034379;28;20116;-78
2022/06/27 10:38:21;;;;;;;12.70;5.45;;;23.10;62.90;;;;;;5031585;28;20041;-77
2022/06/27 10:40:46;;;;;;;13.82;5.50;;;23.20;62.50;;;;;;5032239;28;20049;-76
2022/06/27 10:43:39;;;;;;;8.45;3.88;;;23.30;62.40;;;;;;5035070;28;20028;-75
2022/06/27 10:46:10;;;;;;;5.85;2.42;;;23.50;63.20;;;;;;5038790;28;20033;-75
2022/06/27 10:49:01;;;;;;;8.10;3.22;;;23.60;62.10;;;;;;5034113;28;20025;-74
2022/06/27 10:51:33;;;;;;;8.65;3.95;;;23.70;62.10;;;;;;5028654;28;20037;-77
2022/06/27 10:54:04;;;;;;;7.78;3.72;;;23.70;62.40;;;;;;5037519;28;20104;-75
2022/06/27 10:56:34;;;;;;;9.07;2.78;;;23.70;59.40;;;;;;5036819;28;20579;-73
2022/06/27 10:59:00;;;;;;;6.93;2.60;;;23.80;57.30;;;;;;5035345;28;20025;-76
2022/06/27 11:01:27;;;;;;;7.55;2.90;;;23.80;56.40;;;;;;5041097;28;20021;-74
2022/06/27 11:03:53;;;;;;;8.25;3.03;;;23.80;56.10;;;;;;5037433;28;20124;-74
2022/06/27 11:06:19;;;;;;;6.43;2.92;;;23.80;54.90;;;;;;5038893;28;20029;-74
2022/06/27 11:08:47;;;;;;;7.78;2.88;;;23.70;55.10;;;;;;5039058;28;20034;-73
2022/06/27 11:11:27;;;;;;;8.35;3.42;;;23.80;56.30;;;;;;5035676;28;20040;-75
2022/06/27 11:13:54;;;;;;;8.57;3.55;;;23.90;56.80;;;;;;5039841;28;20028;-75
2022/06/27 11:16:31;;;;;;;8.82;3.58;;;23.90;56.50;;;;;;5037989;28;20410;-73
2022/06/27 11:19:02;;;;;;;7.90;3.60;;;23.90;56.30;;;;;;5043343;28;20032;-75
2022/06/27 11:21:39;;;;;;;8.00;2.58;;;23.90;55.60;;;;;;5042933;28;20029;-74
2022/06/27 11:24:11;;;;;;;7.82;2.85;;;24.00;55.30;;;;;;5038821;28;20128;-76
2022/06/27 11:26:44;;;;;;;8.00;2.63;;;24.00;55.40;;;;;;5037083;28;20104;-77
2022/06/27 11:32:09;;;;;;;4.85;2.35;;;24.00;55.50;;;;;;5038749;28;20235;-75
2022/06/27 11:34:38;;;;;;;3.78;1.70;;;23.90;53.50;;;;;;5038562;28;20059;-74
2022/06/27 11:37:08;;;;;;;5.68;2.40;;;23.90;55.40;;;;;;5036774;28;20400;-75
2022/06/27 11:39:34;;;;;;;5.13;2.10;;;23.90;54.50;;;;;;5037736;28;20045;-75
2022/06/27 11:42:03;;;;;;;5.43;2.40;;;23.90;58.80;;;;;;5038520;28;20040;-76
2022/06/27 11:44:29;;;;;;;7.40;2.20;;;23.70;55.80;;;;;;5037735;28;20392;-75
2022/06/27 11:47:03;;;;;;;4.43;1.38;;;23.70;56.50;;;;;;5037293;28;20424;-73
2022/06/27 11:49:32;;;;;;;3.10;1.58;;;23.70;58.00;;;;;;5040519;28;20017;-75
2022/06/27 11:52:00;;;;;;;4.45;1.92;;;23.70;60.30;;;;;;5040986;28;20125;-75
2022/06/27 11:54:35;;;;;;;7.47;3.00;;;23.70;62.30;;;;;;5043094;28;20060;-74
2022/06/27 11:57:00;;;;;;;7.80;3.13;;;23.70;59.80;;;;;;5033871;28;20041;-74
2022/06/27 11:59:26;;;;;;;9.40;3.30;;;23.70;59.40;;;;;;5034796;28;20025;-75
2022/06/27 12:02:01;;;;;;;7.55;3.40;;;23.70;59.10;;;;;;5038445;28;20021;-75
2022/06/27 12:04:35;;;;;;;9.57;3.38;;;23.70;58.90;;;;;;5036474;28;20399;-74
2022/06/27 12:07:03;;;;;;;7.82;3.20;;;23.70;58.70;;;;;;5032241;28;20045;-74
2022/06/27 12:09:29;;;;;;;7.13;2.92;;;23.70;58.20;;;;;;5033285;28;20410;-77
2022/06/27 12:12:06;;;;;;;4.53;1.65;;;23.70;58.30;;;;;;5041829;28;20036;-76
2022/06/27 12:14:44;;;;;;;8.48;3.03;;;23.70;61.10;;;;;;5036466;28;20037;-75
2022/06/27 12:17:09;;;;;;;6.30;2.20;;;23.70;61.80;;;;;;5030786;28;20091;-76
2022/06/27 12:19:35;;;;;;;6.22;3.05;;;23.80;62.50;;;;;;5033246;28;20476;-75
2022/06/27 12:22:01;;;;;;;8.80;4.47;;;23.90;61.10;;;;;;5038736;28;20021;-77
2022/06/27 12:24:26;;;;;;;8.43;4.45;;;24.00;58.00;;;;;;5037663;28;20036;-75
2022/06/27 12:26:52;;;;;;;7.20;2.35;;;24.10;57.70;;;;;;5037111;28;20026;-80
2022/06/27 12:29:18;;;;;;;5.63;2.67;;;24.20;60.70;;;;;;5032479;28;20083;-73
2022/06/27 12:31:44;;;;;;;7.43;3.47;;;24.30;60.50;;;;;;5033338;28;20104;-75
2022/06/27 12:34:10;;;;;;;5.43;1.90;;;24.30;59.70;;;;;;5039439;28;20025;-76
2022/06/27 12:36:37;;;;;;;7.75;2.75;;;24.30;61.20;;;;;;5039141;28;20049;-75
2022/06/27 12:39:05;;;;;;;4.15;2.28;;;24.30;60.80;;;;;;5038002;28;20025;-75
2022/06/27 12:41:31;;;;;;;5.43;1.88;;;24.30;59.50;;;;;;5038613;28;20129;-76
2022/06/27 12:43:57;;;;;;;5.00;2.00;;;24.30;61.30;;;;;;5034774;28;20116;-76
2022/06/27 12:46:24;;;;;;;5.75;2.15;;;24.30;61.80;;;;;;5039529;28;20078;-75
2022/06/27 12:48:50;;;;;;;4.47;1.70;;;24.30;62.20;;;;;;5028762;28;20113;-76
2022/06/27 12:51:16;;;;;;;7.15;3.25;;;24.30;62.30;;;;;;5045185;28;20115;-75
2022/06/27 12:53:42;;;;;;;4.43;1.80;;;24.40;60.10;;;;;;5038193;28;20108;-75